• Join FlightAware (Why Join?)
  • Login
  • US Flag 
06:15PM EDT


 

Airport Tracker/Info


-or-


 

Live Flight TrackerFlight Track Log ✈ N27508 ✈ 02-Jul-2013 ✈ KLNS - KRIC

Flight Track Log - Related Links

Times and Time Zones

All times are in EDT time to prevent confusion due to time zone crossing. See the N27508 flight status page for this flight to view local times or setup timezone preferences in your user account.

Time Position Orientation Groundspeed Altitude Reporting Facility
EDT Latitude Longitude Course Direction KTS MPH feet Rate Location/Type
02:09PM 39.9833 -76.2667 186° South 120 138 4,100  Level Potomac TRACON
02:10PM 39.9504 -76.3000 180° South  Level FlightAware Approximate
02:10PM 39.9500 -76.2667 180° South 143 165 4,100  Level Potomac TRACON
02:11PM 39.9121 -76.3167 180° South  Level FlightAware Approximate
02:11PM 39.9167 -76.2833 201° Southwest 148 170 4,100  Level Potomac TRACON
02:12PM 39.8713 -76.3167 180° South  Level FlightAware Approximate
02:12PM 39.8667 -76.3000 194° South 153 176 4,100  Level Potomac TRACON
02:13PM 39.8330 -76.3334 186° South  Level FlightAware Approximate
02:13PM 39.8333 -76.3000 180° South 156 180 4,100  Level Potomac TRACON
02:14PM 39.7925 -76.3386 186° South  Level FlightAware Approximate
02:14PM 39.7833 -76.3167 194° South 159 183 4,100  Level Potomac TRACON
02:15PM 39.7500 -76.3333 201° Southwest 157 181 4,100 -60 Level Potomac TRACON
02:16PM 39.7000 -76.3333 180° South 154 177 4,000  Descending Potomac TRACON
02:17PM 39.6667 -76.3333 180° South 151 174 4,100 60 Climbing Potomac TRACON
02:18PM 39.6167 -76.3333 180° South 148 170 4,200 300 Climbing Potomac TRACON
02:19PM 39.5833 -76.3500 201° Southwest 125 144 4,800 420 Climbing Potomac TRACON
02:20PM 39.5500 -76.3500 180° South 126 145 5,100 120 Climbing Potomac TRACON
02:21PM 39.5167 -76.3667 201° Southwest 143 165 5,100  Level Potomac TRACON
02:22PM 39.4833 -76.3833 201° Southwest 151 174 5,100  Level Potomac TRACON
02:23PM 39.4333 -76.3833 180° South 156 180 5,100 -60 Level Potomac TRACON
02:24PM 39.3833 -76.4000 194° South 160 184 5,000  Descending Potomac TRACON
02:25PM 39.3500 -76.3833 159° South 156 180 5,100  Climbing Potomac TRACON
02:26PM 39.3000 -76.3667 166° South 162 186 5,100  Level Potomac TRACON
02:27PM 39.2500 -76.3500 166° South 167 192 5,100  Level Potomac TRACON
02:28PM 39.2167 -76.3500 180° South 158 182 5,100  Level Potomac TRACON
02:29PM 39.1667 -76.3500 180° South 156 180 5,100  Level Potomac TRACON
02:30PM 39.1333 -76.3333 159° South 157 181 5,100  Level Potomac TRACON
02:31PM 39.0833 -76.3333 180° South 158 182 5,100  Level Potomac TRACON
02:32PM 39.0278 -76.3397 185° South 157 181 5,100  Level Washington Center
02:33PM 38.9881 -76.3367 177° South 155 178 5,100  Level Washington Center
02:34PM 38.9464 -76.3308 174° South 154 177 5,100  Level Washington Center
02:35PM 38.9047 -76.3253 174° South 154 177 5,100  Level Washington Center
02:36PM 38.8631 -76.3222 177° South 155 178 5,100  Level Washington Center
02:37PM 38.8153 -76.3164 175° South 155 178 5,100  Level Washington Center
02:38PM 38.7736 -76.3186 182° South 153 176 5,100  Level Washington Center
02:39PM 38.7319 -76.3181 179° South 150 173 5,100  Level Washington Center
02:40PM 38.6903 -76.3150 177° South 154 177 5,100  Level Washington Center
02:41PM 38.6525 -76.3467 213° Southwest 148 170 5,100 -60 Level Washington Center
02:42PM 38.6189 -76.3756 214° Southwest 147 169 5,000 -60 Descending Washington Center
02:43PM 38.5894 -76.4072 220° Southwest 146 168 5,000 -300 Level Washington Center
02:44PM 38.5519 -76.4306 206° Southwest 167 192 4,500 -480 Descending Washington Center
02:45PM 38.5017 -76.4511 198° South 175 201 4,100 -240 Descending Washington Center
02:46PM 38.4639 -76.4772 208° Southwest 154 177 4,100  Level Washington Center
02:47PM 38.4303 -76.5061 214° Southwest 144 166 4,100  Level Washington Center
02:48PM 38.3886 -76.5136 188° South 151 174 4,100  Level Washington Center
02:49PM 38.3467 -76.5314 198° South 154 177 4,100  Level Washington Center
02:50PM 38.3092 -76.5497 201° Southwest 150 173 4,100 -60 Level Washington Center
02:51PM 38.2692 -76.5703 202° Southwest 148 170 4,000  Descending Washington Center
02:52PM 38.2336 -76.6014 215° Southwest 144 166 4,100  Climbing Washington Center
02:53PM 38.1981 -76.6222 205° Southwest 151 174 4,100  Level Washington Center
02:54PM 38.1542 -76.6269 185° South 155 178 4,100  Level Washington Center
02:56PM 38.0833 -76.6667 204° Southwest 153 176 4,100  Level Potomac TRACON
02:57PM 38.0500 -76.6833 201° Southwest 157 181 4,100  Level Potomac TRACON
02:58PM 38.0333 -76.7333 247° West 146 168 4,100  Level Potomac TRACON
02:59PM 38.0000 -76.7667 218° Southwest 146 168 4,100  Level Potomac TRACON
03:00PM 37.9833 -76.8167 247° West 150 173 4,100  Level Potomac TRACON
03:01PM 37.9500 -76.8500 218° Southwest 152 175 4,100  Level Potomac TRACON
03:02PM 37.9167 -76.8667 202° Southwest 149 171 4,100  Level Potomac TRACON
03:03PM 37.8833 -76.9000 218° Southwest 145 167 4,100  Level Potomac TRACON
03:04PM 37.8500 -76.9333 218° Southwest 147 169 4,100  Level Potomac TRACON
03:05PM 37.8333 -76.9667 238° Southwest 149 171 4,100  Level Potomac TRACON
03:06PM 37.8000 -77.0000 218° Southwest 150 173 4,100  Level Potomac TRACON
03:07PM 37.7667 -77.0500 230° Southwest 157 181 4,100  Level Potomac TRACON
03:08PM 37.7667 -77.1000 270° West 153 176 4,100  Level Potomac TRACON
03:09PM 37.7667 -77.1500 270° West 155 178 4,100  Level Potomac TRACON
03:10PM 37.7500 -77.2000 247° West 158 182 4,100 -240 Level Potomac TRACON
03:11PM 37.7500 -77.2500 270° West 166 191 3,700 -600 Descending Potomac TRACON
03:12PM 37.7500 -77.3167 270° West 179 206 3,000 -600 Descending Potomac TRACON
03:13PM 37.7333 -77.3667 247° West 161 185 2,600 -240 Descending Potomac TRACON
03:14PM 37.7167 -77.4167 247° West 160 184 2,600  Level Potomac TRACON
03:15PM 37.6833 -77.4333 202° Southwest 149 171 2,600  Level Potomac TRACON
03:16PM 37.6500 -77.4333 180° South 146 168 2,600  Level Potomac TRACON
03:17PM 37.6167 -77.4000 142° Southeast 133 153 2,600 -480 Level Potomac TRACON
03:18PM 37.5833 -77.3833 158° South 132 152 1,700 -840 Descending Potomac TRACON
03:19PM 37.5500 -77.3500 142° Southeast 123 142 1,000 -600 Descending Potomac TRACON
03:20PM 37.5333 -77.3333 142° Southeast 104 120 500 -540 Descending Potomac TRACON
03:22PM 37.5000 -77.3167 153° Southeast  Level FlightAware Approximate
03:29PM 37.5052 -77.3197 153° Southeast  Level Estimated
03:30PM 37.5000 -77.3167 153° Southeast  Level FlightAware Approximate